Time;durP1;ratioP1;P1;durP2;ratioP2;P2;SDS_P1;SDS_P2;PMS_P1;PMS_P2;Temp;Humidity;BMP_temperature;BMP_pressure;BME280_temperature;BME280_humidity;BME280_pressure;Samples;Min_cycle;Max_cycle;Signal;HPM_P1;HPM_P2
2021/06/22 00:01:13;;;;;;;3.13;1.27;;;15.50;99.90;;;;;;4787665;29;20085;-85
2021/06/22 00:03:41;;;;;;;3.40;1.70;;;15.60;99.90;;;;;;4787604;29;20059;-86
2021/06/22 00:06:09;;;;;;;8.82;2.05;;;15.50;99.90;;;;;;4803263;29;20059;-85
2021/06/22 00:08:37;;;;;;;5.80;2.00;;;15.50;99.90;;;;;;4788261;29;20047;-85
2021/06/22 00:11:06;;;;;;;4.32;1.65;;;15.40;99.90;;;;;;4788773;29;20063;-85
2021/06/22 00:13:34;;;;;;;1.33;1.23;;;15.40;99.90;;;;;;4787970;29;20413;-85
2021/06/22 00:16:01;;;;;;;4.50;1.88;;;15.40;99.90;;;;;;4803019;29;20386;-85
2021/06/22 00:18:30;;;;;;;6.60;1.55;;;15.40;99.90;;;;;;4787423;29;20062;-85
2021/06/22 00:20:58;;;;;;;5.28;1.88;;;15.50;99.90;;;;;;4802751;29;20047;-85
2021/06/22 00:23:26;;;;;;;5.57;2.03;;;15.50;99.90;;;;;;4817231;29;20063;-86
2021/06/22 00:25:56;;;;;;;3.30;2.58;;;15.50;99.90;;;;;;4802929;29;20096;-84
2021/06/22 00:28:24;;;;;;;4.65;2.22;;;15.40;99.90;;;;;;4802036;29;20047;-85
2021/06/22 00:30:52;;;;;;;7.55;2.47;;;15.40;99.90;;;;;;4803042;29;20062;-85
2021/06/22 00:33:20;;;;;;;3.20;2.67;;;15.40;99.90;;;;;;4787645;29;20054;-85
2021/06/22 00:35:48;;;;;;;5.68;2.63;;;15.40;99.90;;;;;;4802897;29;20489;-84
2021/06/22 01:10:36;;;;;;;;;;;;;;;;;;;;;
2021/06/22 01:36:17;;;;;;;3.00;2.00;;;15.10;99.90;;;;;;4713650;30;20052;-85
2021/06/22 01:48:50;;;;;;;1.85;1.65;;;15.10;99.90;;;;;;4785475;29;20059;-83
2021/06/22 01:52:14;;;;;;;2.00;1.90;;;15.10;99.90;;;;;;4783936;29;20278;-84
2021/06/22 01:56:15;;;;;;;;;;;;;;;;;;;;;
2021/06/22 01:59:55;;;;;;;2.08;1.90;;;15.10;99.90;;;;;;4756401;29;20054;-84
2021/06/22 02:03:05;;;;;;;5.40;1.85;;;15.10;99.90;;;;;;4808826;29;20065;-85
2021/06/22 02:06:38;;;;;;;1.83;1.52;;;15.20;99.90;;;;;;4801003;29;20083;-83
2021/06/22 02:10:13;;;;;;;2.35;1.80;;;15.10;99.90;;;;;;4812043;29;20531;-85
2021/06/22 02:13:56;;;;;;;2.30;2.13;;;15.10;99.90;;;;;;4797981;29;20050;-85
2021/06/22 02:17:10;;;;;;;3.38;1.83;;;15.20;99.90;;;;;;4779260;29;20034;-84
2021/06/22 02:20:33;;;;;;;3.10;1.50;;;15.20;99.90;;;;;;4801201;29;20055;-85
2021/06/22 02:23:24;;;;;;;3.90;2.30;;;15.20;99.90;;;;;;4801433;29;20420;-85
2021/06/22 02:30:23;;;;;;;2.10;1.63;;;15.20;99.90;;;;;;4722570;30;20071;-84
2021/06/22 02:33:18;;;;;;;2.00;1.88;;;15.10;99.90;;;;;;4732487;30;20060;-85
2021/06/22 02:36:10;;;;;;;1.95;1.80;;;15.10;99.90;;;;;;4724607;30;20502;-84
2021/06/22 02:39:21;;;;;;;2.20;1.40;;;15.10;99.90;;;;;;4730929;30;20053;-84
2021/06/22 02:42:38;;;;;;;6.28;3.10;;;15.10;99.90;;;;;;4720920;30;20065;-85
2021/06/22 02:45:59;;;;;;;3.40;1.67;;;15.10;99.90;;;;;;4702110;30;20068;-84
2021/06/22 02:56:54;;;;;;;1.15;1.10;;;15.10;99.90;;;;;;4737581;30;20047;-85
2021/06/22 03:00:47;;;;;;;5.30;2.22;;;15.00;99.90;;;;;;4772148;29;20063;-85
2021/06/22 03:04:00;;;;;;;2.80;2.22;;;15.00;99.90;;;;;;4775077;29;20429;-84
2021/06/22 03:06:54;;;;;;;1.58;1.20;;;15.00;99.90;;;;;;4776957;29;20195;-85
2021/06/22 03:09:55;;;;;;;2.30;1.67;;;15.10;99.90;;;;;;4806492;29;20054;-84
2021/06/22 03:13:07;;;;;;;3.25;2.08;;;15.10;99.90;;;;;;4809189;29;20058;-84
2021/06/22 03:15:46;;;;;;;2.08;1.58;;;15.10;99.90;;;;;;4793053;29;20058;-84
2021/06/22 03:18:28;;;;;;;1.98;1.77;;;15.10;99.90;;;;;;4790295;29;20057;-84
2021/06/22 03:21:03;;;;;;;2.00;1.67;;;15.10;99.90;;;;;;4805647;29;21002;-83
2021/06/22 03:24:22;;;;;;;6.70;2.15;;;15.20;99.90;;;;;;4793714;29;20047;-83
2021/06/22 03:27:36;;;;;;;4.93;1.90;;;15.20;99.90;;;;;;4836043;29;20053;-84
2021/06/22 03:30:29;;;;;;;3.70;2.45;;;15.20;99.90;;;;;;4826941;29;20058;-84
2021/06/22 03:33:29;;;;;;;1.83;1.70;;;15.30;99.90;;;;;;4840484;29;20068;-84
2021/06/22 03:36:10;;;;;;;5.18;1.85;;;15.20;99.90;;;;;;4826011;29;20056;-84
2021/06/22 03:38:38;;;;;;;3.55;1.98;;;15.20;99.90;;;;;;4826601;29;20057;-84
2021/06/22 03:41:08;;;;;;;6.60;1.92;;;15.30;99.90;;;;;;4796111;29;20136;-84
2021/06/22 03:43:42;;;;;;;2.75;2.55;;;15.30;99.90;;;;;;4796597;29;20046;-84
2021/06/22 03:46:36;;;;;;;3.15;2.50;;;15.30;99.90;;;;;;4842642;29;20405;-84
2021/06/22 03:49:15;;;;;;;6.95;2.97;;;15.30;99.90;;;;;;4812601;29;20527;-84
2021/06/22 03:51:48;;;;;;;1.00;0.93;;;15.20;99.90;;;;;;4825047;29;20046;-84
2021/06/22 03:54:19;;;;;;;3.25;1.88;;;15.30;99.90;;;;;;4807286;29;20061;-84
2021/06/22 03:57:07;;;;;;;1.88;1.77;;;15.30;99.90;;;;;;4812336;29;20523;-83
2021/06/22 04:00:08;;;;;;;1.98;1.88;;;15.30;99.90;;;;;;4818740;29;20042;-84
2021/06/22 04:02:43;;;;;;;2.53;1.88;;;15.40;99.90;;;;;;4812238;29;20062;-85
2021/06/22 04:05:21;;;;;;;2.80;1.38;;;15.40;99.90;;;;;;4810659;29;20504;-84
2021/06/22 04:08:04;;;;;;;7.95;3.58;;;15.50;99.90;;;;;;4809836;29;20589;-84
2021/06/22 04:10:37;;;;;;;2.05;1.30;;;15.50;99.90;;;;;;4825010;29;20054;-84
2021/06/22 04:13:07;;;;;;;1.65;1.55;;;15.50;99.90;;;;;;4824668;29;20446;-84
2021/06/22 04:15:39;;;;;;;1.52;1.42;;;15.60;99.90;;;;;;4807173;29;20073;-84
2021/06/22 04:18:09;;;;;;;3.10;1.77;;;15.60;99.90;;;;;;4825620;29;20061;-85
2021/06/22 04:24:46;;;;;;;2.80;2.35;;;15.70;99.90;;;;;;4836588;29;20049;-84
2021/06/22 04:27:14;;;;;;;3.88;2.03;;;15.70;99.90;;;;;;4824336;29;20493;-85
2021/06/22 04:29:42;;;;;;;2.70;1.40;;;15.80;99.90;;;;;;4836813;29;20603;-85
2021/06/22 04:32:10;;;;;;;1.67;1.13;;;15.90;99.90;;;;;;4811430;29;20049;-86
2021/06/22 04:34:38;;;;;;;2.10;1.23;;;16.00;99.90;;;;;;4823371;29;20070;-85
2021/06/22 04:37:17;;;;;;;1.38;1.13;;;16.00;99.90;;;;;;4806246;29;20057;-84
2021/06/22 04:39:52;;;;;;;1.42;1.33;;;16.10;99.90;;;;;;4806024;29;20057;-85
2021/06/22 04:42:20;;;;;;;3.42;2.03;;;16.10;99.90;;;;;;4840117;29;20058;-85
2021/06/22 04:44:48;;;;;;;5.78;1.60;;;16.20;99.90;;;;;;4824479;29;20053;-80
2021/06/22 04:47:16;;;;;;;27.13;5.32;;;16.20;99.90;;;;;;4841770;29;20062;-81
2021/06/22 04:49:44;;;;;;;2.83;1.73;;;16.30;99.90;;;;;;4824494;29;20060;-81
2021/06/22 04:52:12;;;;;;;4.22;2.28;;;16.30;99.90;;;;;;4825333;29;20053;-79
2021/06/22 04:54:41;;;;;;;2.90;1.83;;;16.30;99.90;;;;;;4825882;29;20517;-79
2021/06/22 04:57:12;;;;;;;1.63;1.52;;;16.30;99.90;;;;;;4841932;29;20046;-79
2021/06/22 04:59:41;;;;;;;3.78;2.35;;;16.30;99.90;;;;;;4823776;29;20062;-79
2021/06/22 05:02:20;;;;;;;3.05;2.65;;;16.40;99.90;;;;;;4842005;29;20133;-80
2021/06/22 05:04:50;;;;;;;3.75;1.63;;;16.40;99.90;;;;;;4810077;29;20058;-78
2021/06/22 05:07:18;;;;;;;22.25;3.00;;;16.40;99.90;;;;;;4825363;29;20061;-79
2021/06/22 05:09:46;;;;;;;7.63;2.72;;;16.40;99.90;;;;;;4824771;29;20058;-82
2021/06/22 05:12:14;;;;;;;4.05;2.20;;;16.50;99.90;;;;;;4824415;29;20523;-83
2021/06/22 05:14:42;;;;;;;3.40;2.20;;;16.70;99.90;;;;;;4825209;29;20488;-85
2021/06/22 05:17:13;;;;;;;3.63;2.25;;;16.80;99.90;;;;;;4809252;29;20520;-83
2021/06/22 05:19:41;;;;;;;5.20;2.42;;;16.90;99.90;;;;;;4824604;29;20078;-85
2021/06/22 05:22:09;;;;;;;1.73;1.63;;;17.00;99.90;;;;;;4824031;29;20050;-89
2021/06/22 05:24:37;;;;;;;1.75;1.65;;;17.30;99.90;;;;;;4809096;29;20045;-88
2021/06/22 05:27:06;;;;;;;7.50;4.40;;;17.40;99.90;;;;;;4824922;29;20054;-87
2021/06/22 05:29:34;;;;;;;2.53;2.22;;;17.50;99.90;;;;;;4824318;29;20054;-87
2021/06/22 05:32:02;;;;;;;6.72;2.70;;;17.60;99.90;;;;;;4840551;29;20500;-86
2021/06/22 05:34:31;;;;;;;5.30;1.55;;;17.70;99.90;;;;;;4841248;29;20061;-86
2021/06/22 05:37:03;;;;;;;3.53;2.00;;;17.60;99.90;;;;;;4840230;29;20488;-87
2021/06/22 05:39:31;;;;;;;7.43;2.38;;;17.80;99.90;;;;;;4839064;29;20423;-86
2021/06/22 05:41:59;;;;;;;2.58;1.95;;;17.80;99.90;;;;;;4841910;29;20409;-86
2021/06/22 05:44:27;;;;;;;2.50;1.20;;;17.80;99.90;;;;;;4824850;29;20045;-86
2021/06/22 05:46:55;;;;;;;6.25;1.20;;;17.90;99.90;;;;;;4840417;29;20058;-87
2021/06/22 05:49:23;;;;;;;1.05;0.90;;;18.10;99.90;;;;;;4824397;29;20054;-86
2021/06/22 05:51:53;;;;;;;4.20;0.93;;;18.00;99.90;;;;;;4808354;29;20058;-87
2021/06/22 05:54:20;;;;;;;11.93;3.75;;;18.00;99.90;;;;;;4821673;29;20073;-86
2021/06/22 05:56:49;;;;;;;1.77;1.00;;;18.10;99.90;;;;;;4809118;29;20043;-87
2021/06/22 05:59:19;;;;;;;1.15;1.05;;;18.30;99.90;;;;;;4838667;29;20050;-86
2021/06/22 06:01:47;;;;;;;2.45;2.25;;;18.40;99.90;;;;;;4799194;29;20053;-84
2021/06/22 06:04:18;;;;;;;1.10;1.00;;;18.50;99.90;;;;;;4823757;29;20061;-85
2021/06/22 06:06:46;;;;;;;3.20;1.50;;;18.60;99.90;;;;;;4809330;29;20058;-85
2021/06/22 06:09:30;;;;;;;1.58;1.00;;;18.60;99.90;;;;;;5103611;27;20130;-85
2021/06/22 06:11:58;;;;;;;2.63;1.42;;;18.50;99.90;;;;;;5075907;27;20052;-85
2021/06/22 06:14:26;;;;;;;2.33;1.08;;;18.60;99.90;;;;;;5129101;27;20059;-85
2021/06/22 06:16:55;;;;;;;4.35;1.15;;;18.70;99.90;;;;;;5128129;27;20488;-86
2021/06/22 06:19:23;;;;;;;3.40;1.80;;;18.80;99.90;;;;;;5129597;28;20063;-84
2021/06/22 06:21:51;;;;;;;2.60;1.48;;;18.80;99.90;;;;;;5128795;27;20051;-85
2021/06/22 06:24:19;;;;;;;3.67;2.03;;;18.80;99.90;;;;;;5128967;27;20062;-85
2021/06/22 06:29:46;;;;;;;2.00;1.30;;;18.70;99.90;;;;;;5127188;28;20395;-82
2021/06/22 06:33:40;;;;;;;6.90;1.20;;;18.60;99.90;;;;;;5114143;27;20489;-80
2021/06/22 06:38:14;;;;;;;1.30;1.20;;;18.70;99.90;;;;;;4888066;29;20052;-80
2021/06/22 06:41:36;;;;;;;2.42;0.63;;;18.70;99.90;;;;;;4975420;28;20152;-81
2021/06/22 06:44:58;;;;;;;2.30;0.70;;;18.70;99.90;;;;;;5040116;28;20040;-80
2021/06/22 06:48:06;;;;;;;3.13;1.10;;;18.80;99.90;;;;;;5092701;28;20107;-80
2021/06/22 06:50:41;;;;;;;3.78;1.23;;;19.10;99.90;;;;;;5056559;28;20056;-82
2021/06/22 06:53:09;;;;;;;3.88;1.25;;;19.20;99.90;;;;;;5082452;28;20047;-80
2021/06/22 06:55:42;;;;;;;2.28;1.38;;;19.30;99.90;;;;;;5084970;28;20139;-82
2021/06/22 06:58:10;;;;;;;6.78;1.73;;;19.30;99.90;;;;;;5083957;28;20489;-82
2021/06/22 07:00:39;;;;;;;1.90;1.42;;;19.30;99.90;;;;;;5084184;28;20533;-81
2021/06/22 07:03:07;;;;;;;1.80;1.30;;;19.40;99.90;;;;;;5084742;28;20052;-81
2021/06/22 07:05:38;;;;;;;3.58;1.80;;;19.40;99.90;;;;;;5084034;28;20559;-84
2021/06/22 07:08:06;;;;;;;1.45;1.35;;;19.30;99.90;;;;;;5081782;28;20044;-80
2021/06/22 07:10:35;;;;;;;6.93;1.45;;;19.50;99.90;;;;;;5084278;28;20217;-82
2021/06/22 07:13:04;;;;;;;3.83;1.52;;;19.60;99.90;;;;;;5084323;28;20231;-82
2021/06/22 07:15:33;;;;;;;8.75;1.83;;;19.70;99.90;;;;;;5066084;28;20051;-82
2021/06/22 07:18:01;;;;;;;2.92;1.77;;;19.80;99.90;;;;;;5092291;28;20048;-83
2021/06/22 07:20:29;;;;;;;4.57;2.25;;;20.00;99.90;;;;;;5055719;28;20049;-83
2021/06/22 07:22:58;;;;;;;2.67;1.13;;;20.20;99.90;;;;;;5066484;28;20052;-82
2021/06/22 07:25:27;;;;;;;2.75;1.27;;;20.40;99.90;;;;;;5069608;28;20049;-83
2021/06/22 07:27:57;;;;;;;1.70;1.60;;;21.00;99.90;;;;;;5069684;28;20045;-82
2021/06/22 07:30:27;;;;;;;3.85;1.50;;;21.60;99.90;;;;;;5061464;28;20488;-80
2021/06/22 07:32:58;;;;;;;3.20;1.20;;;22.30;99.90;;;;;;5112627;28;20043;-82
2021/06/22 07:35:29;;;;;;;0.98;0.65;;;22.30;99.90;;;;;;5090945;28;20040;-83
2021/06/22 07:37:58;;;;;;;1.02;1.02;;;22.80;99.90;;;;;;5108162;28;20050;-82
2021/06/22 07:40:26;;;;;;;1.38;1.10;;;23.90;99.90;;;;;;5112253;28;20480;-83
2021/06/22 07:42:56;;;;;;;4.70;3.38;;;24.10;99.90;;;;;;5112772;28;20043;-82
2021/06/22 07:45:24;;;;;;;2.13;1.27;;;23.70;99.90;;;;;;5112561;28;20063;-83
2021/06/22 07:47:55;;;;;;;2.60;2.25;;;22.90;99.90;;;;;;5093474;28;20042;-82
2021/06/22 07:50:24;;;;;;;3.20;1.23;;;22.40;99.90;;;;;;5112635;28;20733;-83
2021/06/22 07:52:52;;;;;;;8.23;1.50;;;22.10;99.90;;;;;;5110400;28;20039;-84
2021/06/22 07:55:20;;;;;;;1.60;1.10;;;21.90;99.90;;;;;;5112935;28;20043;-81
2021/06/22 07:57:50;;;;;;;6.35;3.72;;;21.80;99.90;;;;;;5110750;28;20032;-83
2021/06/22 08:03:02;;;;;;;1.27;1.17;;;21.30;99.90;;;;;;5110135;28;20543;-82
2021/06/22 08:05:30;;;;;;;1.73;1.00;;;21.20;99.90;;;;;;5112415;28;20062;-82
2021/06/22 08:07:58;;;;;;;1.90;1.80;;;21.40;99.90;;;;;;5110971;28;20047;-81
2021/06/22 08:10:27;;;;;;;3.15;2.92;;;21.50;99.90;;;;;;5110120;28;20059;-83
2021/06/22 08:12:57;;;;;;;1.98;1.67;;;21.60;99.90;;;;;;5112764;28;20051;-83
2021/06/22 08:15:26;;;;;;;3.92;1.65;;;21.70;99.90;;;;;;5111626;28;20481;-83
2021/06/22 08:17:55;;;;;;;6.03;1.70;;;21.60;99.90;;;;;;5112441;28;20052;-80
2021/06/22 08:20:24;;;;;;;2.75;1.85;;;21.60;99.90;;;;;;5110561;27;20122;-80
2021/06/22 08:22:53;;;;;;;1.45;1.35;;;21.50;99.90;;;;;;5110469;28;20472;-80
2021/06/22 08:25:24;;;;;;;4.03;1.80;;;21.50;99.90;;;;;;5112419;28;20051;-81
2021/06/22 08:27:53;;;;;;;4.15;2.88;;;21.10;99.90;;;;;;5110111;28;20050;-80
2021/06/22 08:30:23;;;;;;;4.95;1.45;;;21.10;99.90;;;;;;5109784;28;20054;-80
2021/06/22 08:32:52;;;;;;;1.98;1.48;;;21.20;99.90;;;;;;5108474;28;20050;-83
2021/06/22 08:35:20;;;;;;;2.35;1.25;;;21.10;99.90;;;;;;5110801;27;20078;-82
2021/06/22 08:37:52;;;;;;;1.00;1.00;;;21.20;99.90;;;;;;5112134;28;20054;-84
2021/06/22 08:40:20;;;;;;;2.45;1.20;;;21.00;99.90;;;;;;5111674;28;20044;-82
2021/06/22 08:42:48;;;;;;;6.32;1.60;;;20.90;99.90;;;;;;5074771;28;20048;-84
2021/06/22 08:45:19;;;;;;;13.25;1.70;;;21.00;99.90;;;;;;5090566;28;20504;-84
2021/06/22 08:47:54;;;;;;;4.88;3.20;;;20.80;99.90;;;;;;5089199;28;20040;-76
2021/06/22 08:50:27;;;;;;;3.03;1.70;;;21.00;99.90;;;;;;5102024;28;20051;-79
2021/06/22 08:53:00;;;;;;;5.03;1.52;;;21.20;99.90;;;;;;5092704;28;20556;-79
2021/06/22 08:55:36;;;;;;;5.85;1.63;;;21.40;99.90;;;;;;5101683;28;20044;-85
2021/06/22 08:58:30;;;;;;;1.23;1.10;;;21.70;99.90;;;;;;5073734;28;20515;-83
2021/06/22 09:01:16;;;;;;;5.25;1.48;;;21.80;99.90;;;;;;5090106;28;20051;-84
2021/06/22 09:03:54;;;;;;;6.00;1.17;;;21.80;99.90;;;;;;5072874;28;20032;-83
2021/06/22 09:06:39;;;;;;;1.42;1.10;;;21.90;99.90;;;;;;5038866;28;20044;-81
2021/06/22 09:09:18;;;;;;;5.75;1.85;;;21.90;99.90;;;;;;5090298;28;20056;-82
2021/06/22 09:12:11;;;;;;;3.83;1.50;;;22.00;99.90;;;;;;5090795;28;20048;-82
2021/06/22 09:14:43;;;;;;;1.52;1.42;;;22.00;99.90;;;;;;5089914;28;20390;-81
2021/06/22 09:17:11;;;;;;;1.52;1.33;;;21.90;99.90;;;;;;5090472;28;20059;-81
2021/06/22 09:19:50;;;;;;;1.55;1.10;;;22.00;99.90;;;;;;5084075;28;20050;-84
2021/06/22 09:22:18;;;;;;;3.88;1.20;;;21.90;99.90;;;;;;5091992;28;20043;-84
2021/06/22 09:25:12;;;;;;;2.78;1.50;;;21.90;99.90;;;;;;5100282;28;20081;-82
2021/06/22 09:27:54;;;;;;;3.83;1.60;;;21.90;99.90;;;;;;5090522;28;20047;-82
2021/06/22 09:30:43;;;;;;;3.22;1.33;;;22.00;99.90;;;;;;5090042;28;20497;-81
2021/06/22 09:33:25;;;;;;;3.80;1.80;;;22.20;99.90;;;;;;5091173;28;20052;-83
2021/06/22 09:36:02;;;;;;;1.40;1.30;;;22.30;99.90;;;;;;5067300;28;20065;-82
2021/06/22 09:38:36;;;;;;;3.20;1.88;;;22.30;99.90;;;;;;5076964;28;20055;-83
2021/06/22 09:41:12;;;;;;;3.28;1.40;;;22.40;99.90;;;;;;5091008;28;20047;-82
2021/06/22 09:44:04;;;;;;;1.45;1.00;;;22.30;99.90;;;;;;5089872;28;20036;-80
2021/06/22 09:46:41;;;;;;;6.82;1.70;;;22.20;99.90;;;;;;5089916;28;20044;-83
2021/06/22 09:49:13;;;;;;;2.83;2.63;;;22.10;99.90;;;;;;5089090;28;20058;-81
2021/06/22 09:51:58;;;;;;;3.05;2.70;;;22.10;99.90;;;;;;5107799;28;20047;-84
2021/06/22 09:54:30;;;;;;;1.27;1.20;;;21.90;99.90;;;;;;5092556;28;20043;-82
2021/06/22 09:57:08;;;;;;;6.30;1.40;;;22.00;99.90;;;;;;5082356;28;20401;-84
2021/06/22 09:59:52;;;;;;;3.15;1.20;;;22.20;99.90;;;;;;5089348;28;20044;-81
2021/06/22 10:02:28;;;;;;;3.15;1.65;;;22.40;99.90;;;;;;5087496;28;20044;-79
2021/06/22 10:05:00;;;;;;;1.23;1.13;;;22.50;99.90;;;;;;5073021;28;20079;-77
2021/06/22 10:07:29;;;;;;;6.72;1.40;;;22.20;99.90;;;;;;5088661;28;20051;-80
2021/06/22 10:09:59;;;;;;;2.08;1.08;;;22.10;99.90;;;;;;5089802;28;20051;-79
2021/06/22 10:12:29;;;;;;;3.47;1.60;;;22.30;99.90;;;;;;5070636;28;20052;-81
2021/06/22 10:14:59;;;;;;;2.50;1.70;;;22.40;99.90;;;;;;5090346;28;20040;-79
2021/06/22 10:17:29;;;;;;;5.65;1.50;;;22.10;99.90;;;;;;5072454;28;20059;-80
2021/06/22 10:20:07;;;;;;;1.70;1.48;;;22.20;99.90;;;;;;5081592;28;20048;-79
2021/06/22 10:22:37;;;;;;;2.55;1.02;;;22.40;99.90;;;;;;5077731;28;20039;-78
2021/06/22 10:25:08;;;;;;;2.92;2.05;;;22.60;99.90;;;;;;5090438;28;20048;-80
2021/06/22 10:27:35;;;;;;;;;;;22.80;99.90;;;;;;5071518;28;20047;-78
2021/06/22 10:30:07;;;;;;;1.40;1.30;;;23.00;99.90;;;;;;5090359;28;20322;-80
2021/06/22 10:32:35;;;;;;;4.93;2.13;;;23.10;99.90;;;;;;5089462;28;20055;-81
2021/06/22 10:35:12;;;;;;;2.45;1.60;;;23.00;99.90;;;;;;5088262;28;20040;-78
2021/06/22 10:37:48;;;;;;;0.93;0.85;;;22.80;99.90;;;;;;5089498;28;20046;-80
2021/06/22 10:40:22;;;;;;;6.72;1.63;;;22.90;99.90;;;;;;5072160;28;20052;-81
2021/06/22 10:42:53;;;;;;;3.80;1.33;;;23.20;99.90;;;;;;5072266;28;20040;-79
2021/06/22 10:45:32;;;;;;;5.07;1.35;;;23.00;99.90;;;;;;5070272;28;20068;-84
2021/06/22 10:48:19;;;;;;;2.13;2.03;;;22.90;99.90;;;;;;5083751;28;20052;-81
2021/06/22 10:50:52;;;;;;;2.40;1.73;;;23.00;99.90;;;;;;5071535;28;20043;-83
2021/06/22 10:53:41;;;;;;;1.65;1.20;;;23.20;99.90;;;;;;5090087;28;20063;-81
2021/06/22 10:56:17;;;;;;;7.50;1.55;;;23.20;99.90;;;;;;5074482;28;20511;-82
2021/06/22 10:59:19;;;;;;;2.35;1.83;;;23.00;99.90;;;;;;5094123;28;20514;-80
2021/06/22 11:01:58;;;;;;;2.78;1.33;;;23.10;99.90;;;;;;5094070;28;20416;-80
2021/06/22 11:04:27;;;;;;;4.22;2.22;;;23.20;99.90;;;;;;5093888;28;20074;-83
2021/06/22 11:07:06;;;;;;;5.82;2.10;;;23.30;99.90;;;;;;5057567;28;20044;-86
2021/06/22 11:09:35;;;;;;;3.53;1.53;;;23.10;99.90;;;;;;5060114;28;20511;-85
2021/06/22 11:12:18;;;;;;;13.65;3.00;;;22.80;99.90;;;;;;5075481;28;20047;-81
2021/06/22 11:15:02;;;;;;;2.30;1.50;;;22.90;99.90;;;;;;5058636;28;20048;-83
2021/06/22 11:17:42;;;;;;;1.73;1.63;;;23.10;99.90;;;;;;5072263;28;20052;-79
2021/06/22 11:20:14;;;;;;;3.05;1.65;;;23.20;99.90;;;;;;5054916;28;20057;-81
2021/06/22 11:23:08;;;;;;;4.70;1.88;;;23.10;99.90;;;;;;5055900;28;20041;-78
2021/06/22 11:26:14;;;;;;;1.03;0.93;;;23.20;99.90;;;;;;5093162;28;20055;-79
2021/06/22 11:29:00;;;;;;;2.25;1.42;;;23.00;99.90;;;;;;5010594;28;20305;-79
2021/06/22 11:31:36;;;;;;;1.50;1.20;;;23.10;99.90;;;;;;4994008;28;20049;-79
2021/06/22 11:34:18;;;;;;;1.17;1.13;;;23.20;99.90;;;;;;5032036;28;20492;-80
2021/06/22 11:36:59;;;;;;;3.17;1.10;;;23.40;99.90;;;;;;5022672;28;20584;-88
2021/06/22 11:39:50;;;;;;;4.00;1.35;;;23.20;99.90;;;;;;5043494;28;20589;-82
2021/06/22 11:42:19;;;;;;;4.43;1.35;;;23.10;99.90;;;;;;5049258;28;20493;-83
2021/06/22 11:44:57;;;;;;;1.63;1.52;;;23.20;99.90;;;;;;5033845;28;20068;-83
2021/06/22 11:47:24;;;;;;;3.70;1.50;;;23.30;99.90;;;;;;5049974;28;20048;-82
2021/06/22 11:49:55;;;;;;;3.17;1.40;;;23.20;99.90;;;;;;5049938;28;20049;-83
2021/06/22 11:52:44;;;;;;;1.58;1.48;;;23.10;99.90;;;;;;5048598;28;20060;-84
2021/06/22 11:55:16;;;;;;;3.45;2.53;;;22.70;99.90;;;;;;5047507;28;20033;-86
2021/06/22 11:57:49;;;;;;;3.60;1.55;;;22.80;99.90;;;;;;5016812;28;20049;-86
2021/06/22 12:00:29;;;;;;;3.80;1.65;;;23.20;99.90;;;;;;5049572;28;20049;-87
2021/06/22 12:03:00;;;;;;;1.77;1.67;;;23.20;99.90;;;;;;5049448;28;20552;-84
2021/06/22 12:05:30;;;;;;;2.17;1.52;;;23.00;99.90;;;;;;5025950;28;20064;-84
2021/06/22 12:08:01;;;;;;;1.42;1.33;;;22.90;99.90;;;;;;5053864;28;20048;-81
2021/06/22 12:10:45;;;;;;;3.85;1.77;;;22.90;99.90;;;;;;5074219;28;20048;-89
2021/06/22 12:13:51;;;;;;;2.22;1.30;;;23.10;99.90;;;;;;5058829;28;20052;-84
2021/06/22 12:16:23;;;;;;;1.60;1.50;;;23.20;99.90;;;;;;5045227;28;20044;-87
2021/06/22 12:18:58;;;;;;;1.63;1.42;;;23.20;99.90;;;;;;5072124;28;20036;-87
2021/06/22 12:21:30;;;;;;;2.25;1.60;;;23.20;99.90;;;;;;5068368;28;20051;-79
2021/06/22 12:24:11;;;;;;;1.98;1.65;;;23.50;99.90;;;;;;5076777;28;20059;-82
2021/06/22 12:26:42;;;;;;;1.73;1.63;;;23.50;99.90;;;;;;5056819;28;20047;-80
2021/06/22 12:29:22;;;;;;;4.63;1.65;;;23.30;99.90;;;;;;5056703;28;20055;-85
2021/06/22 12:32:02;;;;;;;2.85;1.60;;;23.10;99.90;;;;;;5056950;28;20059;-85
2021/06/22 12:34:32;;;;;;;2.10;1.77;;;23.00;99.90;;;;;;5074653;28;20417;-82
2021/06/22 12:37:01;;;;;;;1.87;1.37;;;22.90;99.90;;;;;;5065398;28;20663;-82
2021/06/22 12:39:50;;;;;;;;;;;;;;;;;;;;;
2021/06/22 12:42:21;;;;;;;2.97;2.08;;;23.10;99.40;;;;;;5037392;28;20416;-87
2021/06/22 12:44:52;;;;;;;1.30;1.20;;;22.90;99.90;;;;;;5052290;28;20056;-83
2021/06/22 12:47:22;;;;;;;2.10;1.48;;;22.90;99.90;;;;;;5074413;28;20054;-84
2021/06/22 12:50:30;;;;;;;1.55;1.45;;;23.10;99.90;;;;;;5090360;28;20055;-84
2021/06/22 12:53:38;;;;;;;1.98;1.88;;;23.40;99.50;;;;;;5037429;28;20404;-84
2021/06/22 12:56:57;;;;;;;2.10;2.00;;;23.50;99.90;;;;;;5073860;28;20423;-87
2021/06/22 12:59:55;;;;;;;2.67;2.47;;;23.70;99.90;;;;;;5043410;28;20036;-85
2021/06/22 13:02:40;;;;;;;2.03;1.92;;;23.90;99.90;;;;;;5039963;28;20562;-86
2021/06/22 13:05:29;;;;;;;3.92;2.72;;;23.80;99.00;;;;;;5064975;28;20067;-85
2021/06/22 13:08:46;;;;;;;2.70;2.53;;;23.40;99.30;;;;;;5076144;28;20086;-87
2021/06/22 13:11:54;;;;;;;3.75;2.50;;;23.20;99.90;;;;;;5004235;28;20048;-85
2021/06/22 13:15:49;;;;;;;5.75;3.25;;;23.20;99.90;;;;;;4988380;28;20052;-88
2021/06/22 13:18:24;;;;;;;2.47;2.38;;;23.20;99.90;;;;;;4968780;28;20050;-85
2021/06/22 13:20:55;;;;;;;7.03;3.17;;;23.10;99.90;;;;;;4956001;28;20066;-86
2021/06/22 13:23:25;;;;;;;3.28;3.08;;;23.00;99.90;;;;;;4966463;28;20060;-85
2021/06/22 13:26:07;;;;;;;5.70;3.88;;;23.00;99.90;;;;;;5010439;28;20520;-89
2021/06/22 13:29:06;;;;;;;2.45;2.25;;;23.10;99.90;;;;;;5045834;28;20048;-85
2021/06/22 13:32:22;;;;;;;2.77;2.43;;;23.20;99.90;;;;;;5024916;28;20060;-86
2021/06/22 13:34:54;;;;;;;3.10;2.67;;;23.40;99.90;;;;;;5021049;28;20036;-85
2021/06/22 13:37:52;;;;;;;3.05;2.80;;;23.50;98.90;;;;;;5035523;28;20045;-86
2021/06/22 13:41:03;;;;;;;3.40;3.10;;;23.40;99.10;;;;;;5062754;22;20412;-86
2021/06/22 13:43:41;;;;;;;3.83;3.50;;;23.30;99.30;;;;;;5024623;28;20055;-84
2021/06/22 13:46:18;;;;;;;2.53;2.33;;;23.20;99.90;;;;;;5033061;28;20040;-87
2021/06/22 13:48:59;;;;;;;9.20;2.28;;;23.00;99.90;;;;;;5048618;28;20057;-84
2021/06/22 13:51:39;;;;;;;3.53;2.22;;;22.90;99.90;;;;;;5046743;28;20041;-83
2021/06/22 13:54:11;;;;;;;6.38;2.83;;;22.80;99.90;;;;;;5050258;28;20037;-80
2021/06/22 13:56:45;;;;;;;3.95;2.45;;;22.70;99.90;;;;;;5069309;28;20048;-79
2021/06/22 13:59:19;;;;;;;3.15;2.90;;;22.60;99.90;;;;;;5068056;28;20051;-81
2021/06/22 14:02:07;;;;;;;7.93;2.85;;;22.50;99.90;;;;;;5058014;28;20401;-80
2021/06/22 14:04:36;;;;;;;2.53;2.15;;;22.40;99.90;;;;;;5075559;28;20048;-79
2021/06/22 14:07:07;;;;;;;1.95;1.85;;;22.30;99.90;;;;;;5054439;28;20040;-79
2021/06/22 14:09:37;;;;;;;2.67;2.50;;;22.20;99.90;;;;;;5068405;28;20498;-80
2021/06/22 14:12:06;;;;;;;4.22;2.72;;;22.10;99.90;;;;;;5036101;28;20417;-81
2021/06/22 14:14:34;;;;;;;2.47;2.33;;;22.00;99.90;;;;;;5070061;28;20405;-80
2021/06/22 14:17:07;;;;;;;6.35;2.72;;;21.90;99.90;;;;;;5052171;28;20052;-80
2021/06/22 14:19:36;;;;;;;9.45;2.83;;;21.90;99.90;;;;;;5067381;28;20063;-80
2021/06/22 14:22:12;;;;;;;5.63;3.13;;;21.80;99.90;;;;;;5051700;28;20044;-80
2021/06/22 14:24:40;;;;;;;3.55;2.65;;;21.70;99.90;;;;;;5056329;28;20048;-80
2021/06/22 14:27:10;;;;;;;5.30;3.47;;;21.50;99.90;;;;;;5090284;28;20493;-76
2021/06/22 14:29:38;;;;;;;44.25;8.18;;;19.90;99.90;;;;;;5089780;28;20037;-82
2021/06/22 14:32:26;;;;;;;59.63;9.30;;;19.70;99.90;;;;;;5057334;28;20048;-87
2021/06/22 14:35:14;;;;;;;4.63;3.83;;;16.20;99.90;;;;;;5043024;28;20036;-86
2021/06/22 14:37:49;;;;;;;6.18;3.42;;;15.00;99.90;;;;;;5039612;28;20510;-87
2021/06/22 14:41:31;;;;;;;5.97;3.08;;;14.40;99.90;;;;;;5241862;22;20052;-87
2021/06/22 14:44:41;;;;;;;20.85;6.10;;;14.20;99.90;;;;;;5357630;22;20038;-87
2021/06/22 14:50:57;;;;;;;7.43;4.63;;;14.50;99.90;;;;;;5039666;28;20676;-91
2021/06/22 14:58:53;;;;;;;8.25;4.55;;;14.80;99.90;;;;;;4967100;23;20053;-88
2021/06/22 15:43:33;;;;;;;9.35;8.40;;;16.00;99.90;;;;;;4858192;29;20053;-86
2021/06/22 15:50:44;;;;;;;10.85;9.63;;;17.00;99.90;;;;;;4822998;29;20053;-85
2021/06/22 15:53:13;;;;;;;13.55;10.07;;;17.50;99.90;;;;;;4856421;29;20400;-84
2021/06/22 15:55:43;;;;;;;10.00;8.40;;;17.90;99.90;;;;;;4840695;29;20053;-83
2021/06/22 15:58:12;;;;;;;10.37;9.30;;;18.00;99.90;;;;;;4841896;29;20049;-83
2021/06/22 16:00:40;;;;;;;10.82;8.27;;;18.10;99.90;;;;;;4840165;29;20065;-83
2021/06/22 16:03:10;;;;;;;10.50;9.43;;;18.30;99.90;;;;;;4841364;29;20053;-84
2021/06/22 16:05:40;;;;;;;14.18;8.48;;;18.60;99.90;;;;;;4840694;29;20484;-86
2021/06/22 16:08:11;;;;;;;8.23;7.53;;;18.60;99.90;;;;;;4840772;29;20082;-85
2021/06/22 16:10:40;;;;;;;11.00;8.52;;;18.60;99.90;;;;;;4850248;29;20045;-83
2021/06/22 16:13:11;;;;;;;11.68;9.13;;;18.50;99.90;;;;;;4858149;29;20045;-83
2021/06/22 16:15:40;;;;;;;10.18;8.50;;;18.40;99.90;;;;;;4859811;29;20065;-83
2021/06/22 16:18:08;;;;;;;8.35;7.65;;;18.40;99.90;;;;;;4858735;29;20057;-82